createdAt,value
2018-07-14T00:01:10.628Z,3.80
2018-07-14T00:03:38.987Z,3.13
2018-07-14T00:06:07.666Z,3.07
2018-07-14T00:08:36.559Z,7.20
2018-07-14T00:11:04.995Z,6.90
2018-07-14T00:13:33.631Z,7.27
2018-07-14T00:16:02.611Z,8.23
2018-07-14T00:18:31.002Z,12.40
2018-07-14T00:20:59.994Z,12.97
2018-07-14T00:23:28.832Z,9.90
2018-07-14T00:26:03.011Z,11.00
2018-07-14T00:28:38.739Z,10.40
2018-07-14T00:31:07.116Z,7.50
2018-07-14T00:33:35.478Z,7.70
2018-07-14T00:36:03.867Z,8.30
2018-07-14T00:38:32.548Z,7.73
2018-07-14T00:41:01.487Z,5.40
2018-07-14T00:43:29.859Z,4.43
2018-07-14T00:45:58.236Z,4.47
2018-07-14T00:48:26.603Z,4.00
2018-07-14T00:50:55.268Z,3.53
2018-07-14T00:53:23.702Z,3.57
2018-07-14T00:55:51.794Z,3.73
2018-07-14T00:58:21.379Z,3.67
2018-07-14T01:00:50.051Z,3.53
2018-07-14T01:03:18.707Z,2.93
2018-07-14T01:05:47.111Z,3.70
2018-07-14T01:08:15.759Z,3.47
2018-07-14T01:10:44.939Z,4.00
2018-07-14T01:13:13.309Z,3.10
2018-07-14T01:15:41.929Z,3.97
2018-07-14T01:18:10.912Z,4.37
2018-07-14T01:20:39.643Z,3.77
2018-07-14T01:23:08.020Z,4.40
2018-07-14T01:25:37.075Z,3.17
2018-07-14T01:28:05.647Z,3.80
2018-07-14T01:30:34.043Z,3.30
2018-07-14T01:33:02.536Z,3.77
2018-07-14T01:35:31.146Z,4.00
2018-07-14T01:37:59.806Z,2.93
2018-07-14T01:40:28.169Z,4.00
2018-07-14T01:42:56.863Z,4.63
2018-07-14T01:45:25.475Z,4.10
2018-07-14T01:47:56.211Z,2.53
2018-07-14T01:50:24.588Z,4.03
2018-07-14T01:52:53.332Z,4.70
2018-07-14T01:55:21.939Z,3.70
2018-07-14T01:57:50.399Z,3.97
2018-07-14T02:00:19.071Z,4.20
2018-07-14T02:02:47.657Z,3.07
2018-07-14T02:05:16.343Z,4.13
2018-07-14T02:07:44.719Z,4.10
2018-07-14T02:10:13.402Z,4.67
2018-07-14T02:12:42.114Z,4.33
2018-07-14T02:15:10.471Z,6.30
2018-07-14T02:17:39.159Z,3.37
2018-07-14T02:20:07.832Z,4.57
2018-07-14T02:22:36.197Z,4.60
2018-07-14T02:25:04.579Z,4.83
2018-07-14T02:27:33.228Z,4.87
2018-07-14T02:30:01.831Z,4.13
2018-07-14T02:32:30.208Z,4.63
2018-07-14T02:34:58.822Z,4.03
2018-07-14T02:37:27.615Z,4.10
2018-07-14T02:39:56.035Z,4.57
2018-07-14T02:42:24.415Z,4.33
2018-07-14T02:44:53.155Z,4.30
2018-07-14T02:47:21.763Z,3.73
2018-07-14T02:49:50.663Z,4.60
2018-07-14T02:52:19.132Z,3.80
2018-07-14T02:54:48.405Z,4.40
2018-07-14T02:57:17.060Z,4.40
2018-07-14T02:59:45.637Z,4.60
2018-07-14T03:02:14.256Z,3.73
2018-07-14T03:04:42.696Z,4.30
2018-07-14T03:07:11.367Z,5.63
2018-07-14T03:09:39.828Z,4.30
2018-07-14T03:12:08.232Z,4.50
2018-07-14T03:14:37.489Z,4.03
2018-07-14T03:17:05.868Z,3.53
2018-07-14T03:19:34.537Z,3.90
2018-07-14T03:22:02.884Z,3.87
2018-07-14T03:24:31.254Z,3.70
2018-07-14T03:26:59.822Z,4.00
2018-07-14T03:29:28.183Z,4.73
2018-07-14T03:31:56.547Z,3.73
2018-07-14T03:34:25.231Z,5.50
2018-07-14T03:36:53.555Z,5.23
2018-07-14T03:39:21.928Z,4.40
2018-07-14T03:41:51.509Z,4.00
2018-07-14T03:44:20.407Z,4.50
2018-07-14T03:46:48.771Z,4.00
2018-07-14T03:49:17.431Z,4.13
2018-07-14T03:51:46.259Z,4.70
2018-07-14T03:54:14.635Z,3.80
2018-07-14T03:56:43.273Z,4.43
2018-07-14T03:59:11.672Z,4.43
2018-07-14T04:01:40.031Z,3.93
2018-07-14T04:04:08.431Z,4.10
2018-07-14T04:06:36.799Z,4.10
2018-07-14T04:09:06.159Z,4.00
2018-07-14T04:11:34.535Z,3.90
2018-07-14T04:14:03.247Z,4.40
2018-07-14T04:16:31.302Z,3.90
2018-07-14T04:18:59.634Z,4.00
2018-07-14T04:21:27.983Z,3.47
2018-07-14T04:23:56.351Z,4.40
2018-07-14T04:26:24.990Z,3.33
2018-07-14T04:28:53.955Z,4.73
2018-07-14T04:31:22.307Z,4.23
2018-07-14T04:33:50.785Z,4.80
2018-07-14T04:36:19.158Z,4.10
2018-07-14T04:38:47.978Z,4.57
2018-07-14T04:41:16.971Z,4.37
2018-07-14T04:43:45.319Z,4.20
2018-07-14T04:46:13.391Z,4.30
2018-07-14T04:48:42.351Z,4.47
2018-07-14T04:51:10.712Z,4.40
2018-07-14T04:53:39.183Z,4.60
2018-07-14T04:56:07.824Z,4.63
2018-07-14T04:58:36.191Z,4.03
2018-07-14T05:01:04.927Z,5.03
2018-07-14T05:03:33.636Z,4.77
2018-07-14T05:06:01.990Z,4.40
2018-07-14T05:08:31.355Z,4.40
2018-07-14T05:10:59.767Z,3.70
2018-07-14T05:13:28.132Z,4.00
2018-07-14T05:15:56.483Z,4.10
2018-07-14T05:18:24.907Z,4.87
2018-07-14T05:20:53.259Z,5.03
2018-07-14T05:23:21.659Z,3.70
2018-07-14T05:25:50.374Z,4.50
2018-07-14T05:28:18.722Z,5.00
2018-07-14T05:30:47.088Z,4.30
2018-07-14T05:33:15.471Z,3.90
2018-07-14T05:35:44.368Z,4.63
2018-07-14T05:38:13.003Z,4.30
2018-07-14T05:40:41.712Z,4.17
2018-07-14T05:43:10.115Z,4.30
2018-07-14T05:45:38.804Z,3.53
2018-07-14T05:48:07.219Z,4.47
2018-07-14T05:50:35.583Z,4.30
2018-07-14T05:53:04.232Z,4.33
2018-07-14T05:55:32.699Z,4.87
2018-07-14T05:58:01.147Z,3.70
2018-07-14T06:00:29.503Z,4.23
2018-07-14T06:02:58.195Z,4.50
2018-07-14T06:05:28.847Z,4.00
2018-07-14T06:07:58.740Z,4.47
2018-07-14T06:10:28.107Z,3.90
2018-07-14T06:12:57.372Z,3.80
2018-07-14T06:15:26.062Z,3.80
2018-07-14T06:17:54.419Z,3.77
2018-07-14T06:20:22.847Z,4.10
2018-07-14T06:22:52.008Z,3.90
2018-07-14T06:25:21.062Z,3.20
2018-07-14T06:27:50.629Z,4.07
2018-07-14T06:30:19.335Z,4.10
2018-07-14T06:32:47.692Z,3.93
2018-07-14T06:35:16.072Z,3.73
2018-07-14T06:37:44.455Z,4.40
2018-07-14T06:40:13.340Z,3.57
2018-07-14T06:42:41.759Z,3.37
2018-07-14T06:45:10.171Z,3.40
2018-07-14T06:47:38.522Z,3.63
2018-07-14T06:50:07.063Z,3.70
2018-07-14T06:52:35.867Z,3.17
2018-07-14T06:55:04.275Z,3.33
2018-07-14T06:57:32.628Z,3.70
2018-07-14T07:00:01.035Z,3.40
2018-07-14T07:02:29.697Z,3.70
2018-07-14T07:04:59.522Z,3.83
2018-07-14T07:07:28.183Z,3.03
2018-07-14T07:09:57.884Z,3.60
2018-07-14T07:12:27.445Z,3.27
2018-07-14T07:14:57.702Z,3.70
2018-07-14T07:17:26.124Z,3.90
2018-07-14T07:19:54.599Z,3.57
2018-07-14T07:22:23.074Z,3.90
2018-07-14T07:24:51.755Z,3.77
2018-07-14T07:27:20.143Z,3.90
2018-07-14T07:29:48.499Z,2.90
2018-07-14T07:32:17.516Z,3.83
2018-07-14T07:34:46.464Z,2.73
2018-07-14T07:37:15.000Z,3.93
2018-07-14T07:39:43.703Z,3.97
2018-07-14T07:42:12.343Z,3.53
2018-07-14T07:44:40.805Z,4.50
2018-07-14T07:47:09.287Z,3.13
2018-07-14T07:49:37.676Z,3.67
2018-07-14T07:52:06.076Z,3.53
2018-07-14T07:54:34.451Z,4.30
2018-07-14T07:57:03.072Z,3.40
2018-07-14T07:59:31.431Z,3.50
2018-07-14T08:01:59.791Z,3.40
2018-07-14T08:04:28.175Z,4.00
2018-07-14T08:06:56.528Z,4.13
2018-07-14T08:09:24.872Z,3.57
2018-07-14T08:11:53.519Z,3.67
2018-07-14T08:14:22.135Z,3.33
2018-07-14T08:16:50.487Z,3.87
2018-07-14T08:19:19.782Z,3.40
2018-07-14T08:21:48.423Z,3.33
2018-07-14T08:24:17.339Z,4.20
2018-07-14T08:26:45.789Z,3.27
2018-07-14T08:29:14.147Z,4.10
2018-07-14T08:31:42.231Z,3.20
2018-07-14T08:34:10.427Z,2.73
2018-07-14T08:36:38.910Z,3.30
2018-07-14T08:39:08.247Z,3.30
2018-07-14T08:41:36.707Z,3.13
2018-07-14T08:44:05.387Z,3.77
2018-07-14T08:46:33.746Z,2.77
2018-07-14T08:49:03.558Z,3.03
2018-07-14T08:51:32.022Z,2.87
2018-07-14T08:54:00.664Z,2.90
2018-07-14T08:56:29.287Z,3.33
2018-07-14T08:58:57.912Z,2.63
2018-07-14T09:01:26.263Z,4.03
2018-07-14T09:03:54.672Z,2.73
2018-07-14T09:06:23.178Z,2.90
2018-07-14T09:08:51.640Z,2.93
2018-07-14T09:11:20.080Z,3.20
2018-07-14T09:13:48.496Z,3.27
2018-07-14T09:16:17.176Z,3.00
2018-07-14T09:18:46.156Z,3.10
2018-07-14T09:21:14.560Z,3.43
2018-07-14T09:23:42.927Z,3.10
2018-07-14T09:26:11.954Z,2.43
2018-07-14T09:28:40.592Z,3.20
2018-07-14T09:31:08.990Z,2.87
2018-07-14T09:33:37.387Z,2.90
2018-07-14T09:36:05.770Z,3.17
2018-07-14T09:38:34.411Z,2.47
2018-07-14T09:41:03.097Z,2.60
2018-07-14T09:43:31.991Z,2.90
2018-07-14T09:46:00.360Z,2.93
2018-07-14T09:48:28.882Z,3.20
2018-07-14T09:50:57.240Z,2.90
2018-07-14T09:53:26.119Z,3.60
2018-07-14T09:55:54.560Z,3.00
2018-07-14T09:58:23.218Z,3.40
2018-07-14T10:00:57.287Z,3.40
2018-07-14T10:03:26.215Z,3.00
2018-07-14T10:05:54.567Z,2.50
2018-07-14T10:08:23.035Z,2.40
2018-07-14T10:10:51.431Z,2.50
2018-07-14T10:13:20.134Z,2.47
2018-07-14T10:15:48.724Z,3.13
2018-07-14T10:18:17.439Z,3.00
2018-07-14T10:20:46.019Z,2.80
2018-07-14T10:23:14.342Z,2.87
2018-07-14T10:25:43.173Z,3.07
2018-07-14T10:28:11.397Z,2.50
2018-07-14T10:30:40.393Z,2.70
2018-07-14T10:33:09.828Z,3.20
2018-07-14T10:35:38.242Z,2.90
2018-07-14T10:38:06.887Z,3.47
2018-07-14T10:40:35.355Z,2.57
2018-07-14T10:43:06.192Z,2.53
2018-07-14T10:45:35.160Z,2.70
2018-07-14T10:48:03.855Z,2.63
2018-07-14T10:50:32.239Z,3.00
2018-07-14T10:53:00.611Z,3.07
2018-07-14T10:55:29.287Z,2.80
2018-07-14T10:57:58.075Z,2.47
2018-07-14T11:00:26.863Z,2.20
2018-07-14T11:02:55.253Z,2.30
2018-07-14T11:05:30.127Z,2.93
2018-07-14T11:07:58.480Z,2.73
2018-07-14T11:10:26.839Z,3.03
2018-07-14T11:12:55.519Z,3.27
2018-07-14T11:15:23.875Z,2.43
2018-07-14T11:17:52.284Z,2.60
2018-07-14T11:20:20.675Z,3.10
2018-07-14T11:22:49.135Z,2.47
2018-07-14T11:25:17.919Z,2.70
2018-07-14T11:27:46.579Z,3.20
2018-07-14T11:30:15.620Z,2.57
2018-07-14T11:32:44.183Z,3.00
2018-07-14T11:35:13.174Z,2.43
2018-07-14T11:37:41.900Z,2.67
2018-07-14T11:40:10.541Z,2.50
2018-07-14T11:42:38.919Z,3.13
2018-07-14T11:45:07.916Z,3.10
2018-07-14T11:47:36.362Z,2.33
2018-07-14T11:50:04.864Z,2.50
2018-07-14T11:52:33.220Z,2.80
2018-07-14T11:55:01.579Z,3.00
2018-07-14T11:57:30.255Z,2.50
2018-07-14T11:59:59.129Z,2.67
2018-07-14T12:02:27.483Z,3.50
2018-07-14T12:04:55.858Z,3.00
2018-07-14T12:07:24.395Z,2.80
2018-07-14T12:09:52.710Z,3.00
2018-07-14T12:12:21.607Z,3.10
2018-07-14T12:14:50.351Z,3.27
2018-07-14T12:17:18.808Z,2.73
2018-07-14T12:19:47.515Z,3.63
2018-07-14T12:22:16.061Z,3.10
2018-07-14T12:24:44.879Z,3.43
2018-07-14T12:27:13.302Z,3.30
2018-07-14T12:29:42.303Z,3.20
2018-07-14T12:32:10.670Z,2.63
2018-07-14T12:34:39.052Z,2.93
2018-07-14T12:37:07.878Z,2.83
2018-07-14T12:39:36.536Z,3.27
2018-07-14T12:42:05.155Z,2.80
2018-07-14T12:44:34.123Z,2.93
2018-07-14T12:47:02.791Z,3.30
2018-07-14T12:49:31.459Z,2.47
2018-07-14T12:52:13.230Z,2.90
2018-07-14T12:54:41.983Z,3.30
2018-07-14T12:57:10.683Z,2.73
2018-07-14T12:59:39.095Z,2.60
2018-07-14T13:02:07.646Z,2.67
2018-07-14T13:04:36.055Z,2.47
2018-07-14T13:07:04.837Z,2.67
2018-07-14T13:09:33.475Z,2.73
2018-07-14T13:12:01.876Z,2.77
2018-07-14T13:14:30.619Z,2.47
2018-07-14T13:16:59.497Z,3.20
2018-07-14T13:19:27.923Z,3.03
2018-07-14T13:21:56.675Z,2.20
2018-07-14T13:24:25.667Z,2.97
2018-07-14T13:26:54.096Z,3.40
2018-07-14T13:29:22.490Z,3.40
2018-07-14T13:31:50.879Z,3.47
2018-07-14T13:34:19.363Z,3.37
2018-07-14T13:36:47.743Z,3.50
2018-07-14T13:39:16.790Z,2.53
2018-07-14T13:41:45.195Z,3.40
2018-07-14T13:44:13.822Z,3.90
2018-07-14T13:46:42.248Z,3.40
2018-07-14T13:49:10.326Z,2.80
2018-07-14T13:51:38.658Z,3.30
2018-07-14T13:54:07.540Z,3.40
2018-07-14T13:56:35.968Z,3.30
2018-07-14T13:59:04.379Z,3.20
2018-07-14T14:01:32.759Z,3.03
2018-07-14T14:04:01.138Z,2.90
2018-07-14T14:06:29.877Z,2.50
2018-07-14T14:08:58.399Z,3.40
2018-07-14T14:11:27.004Z,2.93
2018-07-14T14:13:55.699Z,3.50
2018-07-14T14:16:24.095Z,3.13
2018-07-14T14:18:52.566Z,3.03
2018-07-14T14:21:20.963Z,2.70
2018-07-14T14:23:49.344Z,3.03
2018-07-14T14:26:18.002Z,4.27
2018-07-14T14:28:46.364Z,3.03
2018-07-14T14:31:15.035Z,3.70
2018-07-14T14:33:43.421Z,3.27
2018-07-14T14:36:12.222Z,3.80
2018-07-14T14:38:41.008Z,3.77
2018-07-14T14:41:09.391Z,3.00
2018-07-14T14:43:38.139Z,2.53
2018-07-14T14:46:06.848Z,3.57
2018-07-14T14:48:35.220Z,3.23
2018-07-14T14:51:03.928Z,3.70
2018-07-14T14:53:32.540Z,2.53
2018-07-14T14:56:01.205Z,3.27
2018-07-14T14:58:29.614Z,3.67
2018-07-14T15:00:58.294Z,3.00
2018-07-14T15:03:26.648Z,3.00
2018-07-14T15:05:55.467Z,3.50
2018-07-14T15:08:24.000Z,3.13
2018-07-14T15:10:52.644Z,3.17
2018-07-14T15:13:21.349Z,3.03
2018-07-14T15:15:49.743Z,3.53
2018-07-14T15:18:18.451Z,3.23
2018-07-14T15:20:47.124Z,2.93
2018-07-14T15:23:15.551Z,3.13
2018-07-14T15:25:44.537Z,3.40
2018-07-14T15:28:13.179Z,3.10
2018-07-14T15:30:41.815Z,3.67
2018-07-14T15:33:10.967Z,3.30
2018-07-14T15:35:39.372Z,3.73
2018-07-14T15:38:07.727Z,3.50
2018-07-14T15:40:36.555Z,2.90
2018-07-14T15:43:04.962Z,3.30
2018-07-14T15:45:33.491Z,3.63
2018-07-14T15:48:02.151Z,3.93
2018-07-14T15:50:30.792Z,3.27
2018-07-14T15:52:59.200Z,3.03
2018-07-14T15:55:27.619Z,3.80
2018-07-14T15:57:56.288Z,3.23
2018-07-14T16:00:24.751Z,2.60
2018-07-14T16:02:53.343Z,3.83
2018-07-14T16:05:21.716Z,3.50
2018-07-14T16:07:50.611Z,3.00
2018-07-14T16:10:19.247Z,2.77
2018-07-14T16:12:48.183Z,3.70
2018-07-14T16:15:17.278Z,2.60
2018-07-14T16:17:45.915Z,3.57
2018-07-14T16:20:14.547Z,3.10
2018-07-14T16:22:43.244Z,2.80
2018-07-14T16:25:11.862Z,2.73
2018-07-14T16:27:40.570Z,3.20
2018-07-14T16:30:08.969Z,2.83
2018-07-14T16:32:37.355Z,2.70
2018-07-14T16:35:06.107Z,3.13
2018-07-14T16:37:34.807Z,3.23
2018-07-14T16:40:03.207Z,3.43
2018-07-14T16:42:31.576Z,2.63
2018-07-14T16:45:00.064Z,4.20
2018-07-14T16:47:28.452Z,3.07
2018-07-14T16:49:56.955Z,2.80
2018-07-14T16:52:25.402Z,3.40
2018-07-14T16:54:53.777Z,4.60
2018-07-14T16:57:22.167Z,2.80
2018-07-14T16:59:50.583Z,3.03
2018-07-14T17:02:18.987Z,3.83
2018-07-14T17:04:47.608Z,2.93
2018-07-14T17:07:16.008Z,3.10
2018-07-14T17:09:44.375Z,2.77
2018-07-14T17:12:13.303Z,4.13
2018-07-14T17:14:41.683Z,2.77
2018-07-14T17:17:10.832Z,3.60
2018-07-14T17:19:40.259Z,3.37
2018-07-14T17:22:09.199Z,3.07
2018-07-14T17:24:37.844Z,2.53
2018-07-14T17:27:06.609Z,3.50
2018-07-14T17:29:34.971Z,3.03
2018-07-14T17:32:03.591Z,3.23
2018-07-14T17:34:32.551Z,3.67
2018-07-14T17:37:00.951Z,3.10
2018-07-14T17:39:29.567Z,4.30
2018-07-14T17:41:58.227Z,3.40
2018-07-14T17:44:26.847Z,3.70
2018-07-14T17:46:55.460Z,2.90
2018-07-14T17:49:23.868Z,3.47
2018-07-14T17:51:52.659Z,3.33
2018-07-14T17:54:21.522Z,3.80
2018-07-14T17:56:50.391Z,3.67
2018-07-14T17:59:18.763Z,3.20
2018-07-14T18:01:47.504Z,3.47
2018-07-14T18:04:16.156Z,2.77
2018-07-14T18:06:44.527Z,2.23
2018-07-14T18:09:13.347Z,2.40
2018-07-14T18:11:43.011Z,3.10
2018-07-14T18:14:11.389Z,3.07
2018-07-14T18:16:39.822Z,3.20
2018-07-14T18:19:08.147Z,3.63
2018-07-14T18:21:36.522Z,3.87
2018-07-14T18:24:05.068Z,3.10
2018-07-14T18:26:33.612Z,2.67
2018-07-14T18:29:02.257Z,2.60
2018-07-14T18:31:30.655Z,3.87
2018-07-14T18:33:59.731Z,3.70
2018-07-14T18:36:28.403Z,3.10
2018-07-14T18:38:56.773Z,3.00
2018-07-14T18:41:25.818Z,3.00
2018-07-14T18:43:54.544Z,3.70
2018-07-14T18:46:23.149Z,3.07
2018-07-14T18:48:51.938Z,2.73
2018-07-14T18:51:20.303Z,3.90
2018-07-14T18:53:48.683Z,2.63
2018-07-14T18:56:17.096Z,3.30
2018-07-14T18:58:45.515Z,4.00
2018-07-14T19:01:13.891Z,3.23
2018-07-14T19:03:42.655Z,3.30
2018-07-14T19:06:11.135Z,2.40
2018-07-14T19:08:39.573Z,2.90
2018-07-14T19:11:08.616Z,2.90
2018-07-14T19:13:36.999Z,3.00
2018-07-14T19:16:05.404Z,3.63
2018-07-14T19:18:33.868Z,3.00
2018-07-14T19:21:02.251Z,3.83
2018-07-14T19:23:31.077Z,3.47
2018-07-14T19:25:59.617Z,3.87
2018-07-14T19:28:28.499Z,4.47
2018-07-14T19:30:57.682Z,3.20
2018-07-14T19:33:26.084Z,3.40
2018-07-14T19:35:54.895Z,2.47
2018-07-14T19:38:23.533Z,2.80
2018-07-14T19:40:52.231Z,2.80
2018-07-14T19:43:21.139Z,3.47
2018-07-14T19:45:49.888Z,3.20
2018-07-14T19:48:19.359Z,3.43
2018-07-14T19:50:47.442Z,3.77
2018-07-14T19:53:15.504Z,3.30
2018-07-14T19:55:44.284Z,2.70
2018-07-14T19:58:12.672Z,2.93
2018-07-14T20:00:41.083Z,3.00
2018-07-14T20:03:09.760Z,3.00
2018-07-14T20:05:38.664Z,3.77
2018-07-14T20:08:07.703Z,3.50
2018-07-14T20:10:36.863Z,4.20
2018-07-14T20:13:05.331Z,3.57
2018-07-14T20:15:33.724Z,4.83
2018-07-14T20:18:02.715Z,3.60
2018-07-14T20:20:31.343Z,3.80
2018-07-14T20:23:00.000Z,3.80
2018-07-14T20:25:28.670Z,3.33
2018-07-14T20:27:57.349Z,4.10
2018-07-14T20:30:26.028Z,4.10
2018-07-14T20:32:54.671Z,4.23
2018-07-14T20:35:23.275Z,3.57
2018-07-14T20:37:52.112Z,3.33
2018-07-14T20:40:20.695Z,4.37
2018-07-14T20:42:49.116Z,8.70
2018-07-14T20:45:17.676Z,9.10
2018-07-14T20:47:46.601Z,13.97
2018-07-14T20:50:15.136Z,7.00
2018-07-14T20:52:43.534Z,6.50
2018-07-14T20:55:12.271Z,4.30
2018-07-14T20:57:40.983Z,3.17
2018-07-14T21:00:09.403Z,4.27
2018-07-14T21:02:38.044Z,3.40
2018-07-14T21:05:06.702Z,3.70
2018-07-14T21:07:35.631Z,3.20
2018-07-14T21:10:04.293Z,3.53
2018-07-14T21:12:33.843Z,4.93
2018-07-14T21:15:02.117Z,4.87
2018-07-14T21:17:30.527Z,4.70
2018-07-14T21:19:58.909Z,4.50
2018-07-14T21:22:27.472Z,3.30
2018-07-14T21:24:55.831Z,4.47
2018-07-14T21:27:24.281Z,4.23
2018-07-14T21:29:52.672Z,4.40
2018-07-14T21:32:21.044Z,5.20
2018-07-14T21:34:49.718Z,15.57
2018-07-14T21:37:18.048Z,6.53
2018-07-14T21:39:46.659Z,3.40
2018-07-14T21:42:15.057Z,3.10
2018-07-14T21:44:43.740Z,3.77
2018-07-14T21:47:12.412Z,3.20
2018-07-14T21:49:41.063Z,3.13
2018-07-14T21:52:09.455Z,3.47
2018-07-14T21:54:37.920Z,4.77
2018-07-14T21:57:06.516Z,4.13
2018-07-14T21:59:34.891Z,3.83
2018-07-14T22:02:04.951Z,4.43
2018-07-14T22:04:34.672Z,5.07
2018-07-14T22:07:03.123Z,11.97
2018-07-14T22:09:31.831Z,14.00
2018-07-14T22:12:00.682Z,9.87
2018-07-14T22:14:29.059Z,5.70
2018-07-14T22:16:57.798Z,5.03
2018-07-14T22:19:26.171Z,3.60
2018-07-14T22:21:54.547Z,5.07
2018-07-14T22:24:22.934Z,4.50
2018-07-14T22:26:51.651Z,4.43
2018-07-14T22:29:20.414Z,3.50
2018-07-14T22:31:49.151Z,4.40
2018-07-14T22:34:17.683Z,3.90
2018-07-14T22:36:46.556Z,4.53
2018-07-14T22:39:15.311Z,4.23
2018-07-14T22:41:45.571Z,5.00
2018-07-14T22:44:13.968Z,4.20
2018-07-14T22:46:42.601Z,4.80
2018-07-14T22:49:11.308Z,5.20
2018-07-14T22:51:39.968Z,6.27
2018-07-14T22:54:08.887Z,4.90
2018-07-14T22:56:37.285Z,4.77
2018-07-14T22:59:05.714Z,5.07
2018-07-14T23:01:34.427Z,5.57
2018-07-14T23:04:02.851Z,6.30
2018-07-14T23:06:31.576Z,5.20
2018-07-14T23:09:00.472Z,5.00
2018-07-14T23:11:29.143Z,5.07
2018-07-14T23:13:58.036Z,4.27
2018-07-14T23:16:26.623Z,17.00
2018-07-14T23:18:55.016Z,6.77
2018-07-14T23:21:23.684Z,5.53
2018-07-14T23:23:52.052Z,6.23
2018-07-14T23:26:20.575Z,4.70
2018-07-14T23:28:48.920Z,4.20
2018-07-14T23:31:17.403Z,5.47
2018-07-14T23:33:45.780Z,5.07
2018-07-14T23:36:14.379Z,4.07
2018-07-14T23:38:43.558Z,4.20
2018-07-14T23:41:11.936Z,5.07
2018-07-14T23:43:40.324Z,4.60
2018-07-14T23:46:08.959Z,4.70
2018-07-14T23:48:37.595Z,4.43
2018-07-14T23:51:06.377Z,4.03
2018-07-14T23:53:35.059Z,5.10
2018-07-14T23:56:03.946Z,3.53
2018-07-14T23:58:32.643Z,4.60
